Time;durP1;ratioP1;P1;durP2;ratioP2;P2;SDS_P1;SDS_P2;PMS_P1;PMS_P2;Temp;Humidity;BMP_temperature;BMP_pressure;BME280_temperature;BME280_humidity;BME280_pressure;Samples;Min_cycle;Max_cycle;Signal;HPM_P1;HPM_P2
2021/09/18 00:01:10;;;;;;;7.97;6.88;;;;;;;10.77;100.00;95071.28;5014558;28;20026;-57
2021/09/18 00:03:39;;;;;;;8.90;6.55;;;;;;;10.74;100.00;95075.31;5013169;28;20026;-58
2021/09/18 00:06:04;;;;;;;8.20;6.50;;;;;;;10.73;100.00;95065.63;5014266;28;20069;-57
2021/09/18 00:08:48;;;;;;;9.30;6.78;;;;;;;10.74;100.00;95072.63;5013520;28;20442;-59
2021/09/18 00:11:13;;;;;;;9.45;6.78;;;;;;;10.70;100.00;95076.09;5014249;28;20026;-57
2021/09/18 00:13:39;;;;;;;8.02;5.65;;;;;;;10.69;100.00;95077.16;5014239;28;20033;-56
2021/09/18 00:16:04;;;;;;;7.75;6.32;;;;;;;10.64;100.00;95077.97;5014208;28;20029;-57
2021/09/18 00:18:30;;;;;;;9.73;7.30;;;;;;;10.63;100.00;95076.34;5014075;28;20034;-58
2021/09/18 00:21:02;;;;;;;8.88;6.68;;;;;;;10.62;100.00;95073.94;5012903;28;20022;-56
2021/09/18 00:23:27;;;;;;;7.93;6.32;;;;;;;10.57;100.00;95077.41;5014113;28;20033;-59
2021/09/18 00:25:56;;;;;;;8.55;6.47;;;;;;;10.52;100.00;95072.03;5013330;28;20037;-58
2021/09/18 00:28:21;;;;;;;9.00;6.45;;;;;;;10.44;100.00;95081.41;4996202;28;20570;-57
2021/09/18 00:30:47;;;;;;;8.20;6.78;;;;;;;10.35;100.00;95079.50;5013905;28;20108;-57
2021/09/18 00:33:12;;;;;;;9.35;6.28;;;;;;;10.25;100.00;95071.44;5012684;28;20476;-58
2021/09/18 00:35:39;;;;;;;8.13;6.07;;;;;;;10.15;100.00;95080.19;5013800;28;20033;-56
2021/09/18 00:38:05;;;;;;;8.55;6.32;;;;;;;10.04;100.00;95083.88;5013749;28;20029;-57
2021/09/18 00:40:36;;;;;;;7.75;6.32;;;;;;;9.92;100.00;95075.28;5013876;28;20052;-58
2021/09/18 00:43:11;;;;;;;7.10;6.13;;;;;;;9.82;100.00;95076.84;5013735;28;20040;-58
2021/09/18 00:45:37;;;;;;;8.43;6.20;;;;;;;9.74;100.00;95082.66;5025716;28;20029;-58
2021/09/18 00:48:11;;;;;;;7.65;5.90;;;;;;;9.69;100.00;95079.19;5012445;28;20033;-57
2021/09/18 00:50:40;;;;;;;7.65;6.15;;;;;;;9.63;100.00;95082.88;5012340;28;20370;-56
2021/09/18 00:53:05;;;;;;;9.05;6.20;;;;;;;9.55;100.00;95086.81;4995799;28;20028;-58
2021/09/18 00:55:31;;;;;;;7.35;5.47;;;;;;;9.42;100.00;95087.28;4995969;28;20034;-58
2021/09/18 00:57:57;;;;;;;6.25;5.47;;;;;;;9.32;100.00;95085.34;5012058;28;20061;-57
2021/09/18 01:00:22;;;;;;;7.72;6.38;;;;;;;9.23;100.00;95081.56;5012173;28;20061;-57
2021/09/18 01:02:48;;;;;;;7.65;6.15;;;;;;;9.17;100.00;95085.25;5013458;28;20105;-58
2021/09/18 01:05:22;;;;;;;6.68;5.75;;;;;;;9.14;100.00;95089.22;5013303;28;20026;-56
2021/09/18 01:07:48;;;;;;;7.63;6.30;;;;;;;9.07;100.00;95077.16;5013249;28;20476;-59
2021/09/18 01:10:13;;;;;;;7.03;5.45;;;;;;;8.96;100.00;95084.25;5011910;28;20130;-58
2021/09/18 01:13:01;;;;;;;9.15;6.00;;;;;;;8.88;100.00;95077.50;5013143;28;20018;-57
2021/09/18 01:15:28;;;;;;;7.95;5.85;;;;;;;8.82;100.00;95075.88;5013228;28;20033;-57
2021/09/18 01:17:58;;;;;;;9.07;6.32;;;;;;;8.77;100.00;95073.16;5011698;28;20046;-58
2021/09/18 01:20:24;;;;;;;8.13;6.22;;;;;;;8.72;100.00;95078.44;5011420;28;20091;-56
2021/09/18 01:23:01;;;;;;;8.80;6.53;;;;;;;8.68;100.00;95078.16;5011906;28;20388;-58
2021/09/18 01:25:29;;;;;;;9.77;6.40;;;;;;;8.67;100.00;95070.38;5020661;28;20361;-57
2021/09/18 01:27:54;;;;;;;8.15;6.40;;;;;;;8.65;100.00;95073.31;5032108;28;20136;-57
2021/09/18 01:30:21;;;;;;;7.82;6.70;;;;;;;8.62;100.00;95063.13;5032446;28;20109;-57
2021/09/18 01:32:59;;;;;;;8.32;6.60;;;;;;;8.63;100.00;95063.94;5032521;28;20516;-58
2021/09/18 01:35:26;;;;;;;7.35;6.20;;;;;;;8.66;100.00;95072.25;5032747;28;20035;-58
2021/09/18 01:37:51;;;;;;;10.45;7.75;;;;;;;8.79;100.00;95068.38;5032401;28;20040;-57
2021/09/18 01:40:28;;;;;;;8.90;7.30;;;;;;;8.98;100.00;95061.56;5032433;28;20380;-54
2021/09/18 01:42:54;;;;;;;11.25;6.78;;;;;;;8.99;100.00;95054.38;5030225;28;20095;-57
2021/09/18 01:45:27;;;;;;;8.35;6.07;;;;;;;8.92;100.00;95054.59;5031253;28;20476;-55
2021/09/18 01:48:00;;;;;;;8.80;6.82;;;;;;;8.88;100.00;95042.78;5015867;28;20500;-54
2021/09/18 01:50:33;;;;;;;8.95;7.25;;;;;;;8.82;100.00;95045.69;5012463;28;20088;-54
2021/09/18 01:53:00;;;;;;;;;;;;;;;8.75;100.00;95045.88;5011833;28;20034;-57
2021/09/18 01:55:26;;;;;;;11.05;7.30;;;;;;;8.70;100.00;95038.66;5012883;28;20304;-58
2021/09/18 01:57:59;;;;;;;10.38;7.35;;;;;;;8.70;100.00;95027.97;5014241;28;20053;-57
2021/09/18 02:00:29;;;;;;;11.73;7.50;;;;;;;8.73;100.00;95028.53;5021324;28;20030;-58
2021/09/18 02:02:54;;;;;;;9.93;7.18;;;;;;;8.70;100.00;95021.81;5011314;28;20058;-53
2021/09/18 02:05:25;;;;;;;9.63;6.90;;;;;;;8.70;100.00;95021.81;5012763;28;20061;-57
2021/09/18 02:07:52;;;;;;;11.02;7.45;;;;;;;8.71;100.00;95020.78;5012495;28;20022;-57
2021/09/18 02:10:23;;;;;;;10.48;7.60;;;;;;;8.67;100.00;95011.63;5012574;28;20081;-57
2021/09/18 02:12:49;;;;;;;9.68;7.25;;;;;;;8.67;100.00;95008.97;5012564;28;20373;-56
2021/09/18 02:15:16;;;;;;;9.07;6.95;;;;;;;8.69;100.00;94998.84;5016653;28;20036;-56
2021/09/18 02:17:42;;;;;;;10.15;6.90;;;;;;;8.66;100.00;94991.34;5012505;28;20056;-56
2021/09/18 02:20:14;;;;;;;13.27;8.10;;;;;;;8.61;100.00;94988.63;5011143;28;20027;-55
2021/09/18 02:22:43;;;;;;;12.30;7.90;;;;;;;8.56;100.00;94989.38;5012468;28;20053;-57
2021/09/18 02:25:29;;;;;;;11.57;7.72;;;;;;;8.58;100.00;94976.63;5012493;28;20026;-57
2021/09/18 02:27:58;;;;;;;9.63;7.60;;;;;;;8.58;100.00;94984.63;5012081;28;20050;-57
2021/09/18 02:30:29;;;;;;;10.73;7.38;;;;;;;8.52;100.00;94982.16;5012257;28;20483;-56
2021/09/18 02:32:56;;;;;;;9.35;7.40;;;;;;;8.43;100.00;94976.47;5016424;28;20095;-54
2021/09/18 02:35:24;;;;;;;11.80;7.97;;;;;;;8.38;100.00;94977.25;5015147;28;20026;-57
2021/09/18 02:37:52;;;;;;;11.10;8.02;;;;;;;8.37;100.00;94969.50;5016161;28;20101;-57
2021/09/18 02:40:22;;;;;;;11.55;7.93;;;;;;;8.36;100.00;94968.69;5015914;28;20033;-55
2021/09/18 02:42:49;;;;;;;10.57;7.13;;;;;;;8.42;100.00;94964.19;5027998;28;20037;-53
2021/09/18 02:45:15;;;;;;;10.05;7.15;;;;;;;8.52;100.00;94963.47;5016163;28;20057;-55
2021/09/18 02:47:41;;;;;;;12.50;7.22;;;;;;;8.49;100.00;94961.31;5014783;28;20429;-53
2021/09/18 02:50:09;;;;;;;11.35;7.18;;;;;;;8.42;100.00;94950.84;5005204;28;20121;-54
2021/09/18 02:52:37;;;;;;;10.05;7.22;;;;;;;8.37;100.00;94959.63;5015997;28;20026;-54
2021/09/18 02:55:04;;;;;;;10.15;7.03;;;;;;;8.31;100.00;94954.44;5015921;28;20362;-56
2021/09/18 02:57:29;;;;;;;9.88;6.85;;;;;;;8.28;100.00;94953.09;5014608;28;20029;-55
2021/09/18 02:59:54;;;;;;;11.80;7.50;;;;;;;8.30;100.00;94950.97;5015850;28;20110;-56
2021/09/18 03:02:23;;;;;;;11.23;7.50;;;;;;;8.31;100.00;94944.56;5015878;28;20025;-54
2021/09/18 03:04:51;;;;;;;10.45;7.65;;;;;;;8.31;100.00;94943.78;5015815;28;20049;-57
2021/09/18 03:07:17;;;;;;;10.80;7.28;;;;;;;8.29;100.00;94937.88;5015645;28;20061;-58
2021/09/18 03:09:42;;;;;;;11.70;7.32;;;;;;;8.27;100.00;94934.69;5015557;28;20049;-54
2021/09/18 03:12:08;;;;;;;9.30;7.13;;;;;;;8.20;100.00;94929.53;5015649;28;20064;-55
2021/09/18 03:14:33;;;;;;;9.57;6.70;;;;;;;8.17;100.00;94927.38;5015604;28;20042;-53
2021/09/18 03:16:58;;;;;;;10.90;7.28;;;;;;;8.11;100.00;94925.72;5032568;28;20056;-53
2021/09/18 03:19:24;;;;;;;11.77;6.70;;;;;;;8.05;100.00;94932.88;5035260;28;20026;-53
2021/09/18 03:21:50;;;;;;;9.38;7.38;;;;;;;8.04;100.00;94935.81;5035174;28;20033;-54
2021/09/18 03:24:21;;;;;;;11.30;7.38;;;;;;;7.99;100.00;94933.88;5034023;28;20052;-54
2021/09/18 03:26:47;;;;;;;14.70;7.60;;;;;;;8.01;100.00;94929.09;5033670;28;20075;-55
2021/09/18 03:29:12;;;;;;;10.05;7.22;;;;;;;7.99;100.00;94927.72;5035012;28;20101;-52
2021/09/18 03:31:42;;;;;;;11.07;7.75;;;;;;;8.00;100.00;94926.69;5034942;28;20030;-53
2021/09/18 03:34:16;;;;;;;10.20;7.78;;;;;;;8.01;100.00;94930.94;5035024;28;20108;-54
2021/09/18 03:36:51;;;;;;;11.57;7.25;;;;;;;8.02;100.00;94919.22;5034842;28;20022;-56
2021/09/18 03:39:22;;;;;;;9.95;7.13;;;;;;;8.07;100.00;94912.09;5034792;28;20512;-53
2021/09/18 03:41:48;;;;;;;12.93;8.10;;;;;;;8.11;100.00;94907.03;5033733;28;20025;-53
2021/09/18 03:44:16;;;;;;;11.55;8.38;;;;;;;8.09;100.00;94903.81;5025184;28;20037;-55
2021/09/18 03:46:42;;;;;;;11.93;7.82;;;;;;;8.07;100.00;94905.94;5015005;28;20037;-55
2021/09/18 03:49:09;;;;;;;11.18;7.80;;;;;;;8.10;100.00;94910.75;5016926;28;20381;-57
2021/09/18 03:51:38;;;;;;;10.70;8.00;;;;;;;8.07;100.00;94911.28;5017698;28;20524;-56
2021/09/18 03:54:09;;;;;;;13.57;7.22;;;;;;;7.99;100.00;94909.88;5013560;28;20489;-53
2021/09/18 03:56:38;;;;;;;10.82;7.70;;;;;;;7.99;100.00;94909.06;5013553;28;20049;-54
2021/09/18 03:59:06;;;;;;;12.30;8.23;;;;;;;7.95;100.00;94907.97;5013512;28;20079;-56
2021/09/18 04:01:32;;;;;;;11.60;7.53;;;;;;;7.95;100.00;94913.31;5014669;28;20030;-56
2021/09/18 04:03:59;;;;;;;13.55;7.88;;;;;;;7.87;100.00;94916.41;5013448;28;20072;-55
2021/09/18 04:06:25;;;;;;;10.82;7.93;;;;;;;7.82;100.00;94915.31;5014548;28;20033;-53
2021/09/18 04:08:54;;;;;;;10.85;7.88;;;;;;;7.74;100.00;94914.97;5013304;28;20108;-53
2021/09/18 04:11:19;;;;;;;10.68;7.45;;;;;;;7.68;100.00;94919.41;5013185;28;20153;-54
2021/09/18 04:13:48;;;;;;;10.27;7.63;;;;;;;7.65;100.00;94919.94;5014520;28;20112;-52
2021/09/18 04:16:13;;;;;;;9.85;7.15;;;;;;;7.62;100.00;94923.09;5014434;28;20030;-53
2021/09/18 04:18:42;;;;;;;10.80;7.05;;;;;;;7.60;100.00;94925.22;5014246;28;20030;-53
2021/09/18 04:21:17;;;;;;;12.77;8.38;;;;;;;7.71;100.00;94920.81;5014284;28;20022;-52
2021/09/18 04:23:48;;;;;;;12.88;8.63;;;;;;;-144.43;100.00;64487.81;5014291;28;20420;-54
2021/09/18 04:26:22;;;;;;;11.65;8.35;;;;;;;-144.43;100.00;64487.81;5014171;28;20030;-53
2021/09/18 04:28:49;;;;;;;12.93;8.38;;;;;;;-144.43;100.00;64487.81;5052360;22;20136;-61
2021/09/18 04:31:15;;;;;;;12.07;8.45;;;;;;;-144.43;100.00;64487.81;5036353;28;20033;-61
2021/09/18 04:33:56;;;;;;;14.52;9.02;;;;;;;-144.43;100.00;64487.81;5034542;28;20022;-62
2021/09/18 04:36:27;;;;;;;12.57;9.18;;;;;;;-144.43;100.00;64487.81;5039615;28;20025;-62
2021/09/18 04:38:59;;;;;;;14.10;8.70;;;;;;;-144.43;100.00;64487.81;5032333;28;20051;-62
2021/09/18 04:41:27;;;;;;;11.43;8.90;;;;;;;8.51;100.00;94887.13;5033455;28;20380;-61
2021/09/18 04:43:53;;;;;;;15.40;10.27;;;;;;;8.57;100.00;94902.09;5033554;28;20033;-62
2021/09/18 04:46:20;;;;;;;13.80;9.60;;;;;;;8.58;100.00;94893.06;5050450;28;20028;-62
2021/09/18 04:48:45;;;;;;;16.27;9.85;;;;;;;8.57;100.00;94891.41;5053330;28;20025;-61
2021/09/18 04:51:13;;;;;;;13.40;8.80;;;;;;;8.53;100.00;94893.81;5053524;28;20116;-62
2021/09/18 04:53:39;;;;;;;14.25;9.18;;;;;;;8.47;100.00;94891.38;5053206;28;20107;-62
2021/09/18 04:56:05;;;;;;;12.88;8.73;;;;;;;8.39;100.00;94892.63;5053784;28;20079;-62
2021/09/18 04:58:30;;;;;;;10.98;8.13;;;;;;;8.28;100.00;94901.59;5051881;28;20024;-62
2021/09/18 05:00:56;;;;;;;10.88;7.90;;;;;;;8.26;100.00;94906.38;5051845;28;20025;-61
2021/09/18 05:03:22;;;;;;;12.65;8.45;;;;;;;8.28;100.00;94906.94;5043710;28;20025;-62
2021/09/18 05:05:51;;;;;;;12.30;8.77;;;;;;;8.33;100.00;94901.63;5031892;28;20403;-62
2021/09/18 05:08:16;;;;;;;11.15;8.32;;;;;;;8.32;100.00;94916.03;5032968;28;20472;-61
2021/09/18 05:10:42;;;;;;;11.77;8.73;;;;;;;8.30;100.00;94918.94;5032911;28;20037;-62
2021/09/18 05:13:08;;;;;;;13.63;8.13;;;;;;;8.23;100.00;94917.53;5030723;28;20055;-62
2021/09/18 05:15:33;;;;;;;12.15;8.52;;;;;;;8.11;100.00;94918.50;5045991;28;20021;-61
2021/09/18 05:17:58;;;;;;;13.48;8.73;;;;;;;8.06;100.00;94923.00;5032905;28;20430;-61
2021/09/18 05:20:24;;;;;;;11.63;8.57;;;;;;;8.11;100.00;94920.38;5044534;28;20505;-61
2021/09/18 05:22:49;;;;;;;11.93;8.48;;;;;;;8.24;100.00;94919.94;5042833;28;20017;-61
2021/09/18 05:25:18;;;;;;;12.13;8.25;;;;;;;8.32;100.00;94918.69;5048969;28;20118;-61
2021/09/18 05:27:43;;;;;;;13.35;9.30;;;;;;;8.51;100.00;94922.63;5052345;28;20052;-62
2021/09/18 05:30:11;;;;;;;12.07;9.30;;;;;;;8.71;100.00;94917.44;5047339;28;20496;-62
2021/09/18 05:32:37;;;;;;;13.07;9.88;;;;;;;8.87;100.00;94918.31;5037830;28;20060;-60
2021/09/18 05:35:06;;;;;;;14.18;9.43;;;;;;;8.90;100.00;94915.16;5034733;28;20543;-61
2021/09/18 05:37:32;;;;;;;14.15;9.30;;;;;;;8.87;100.00;94917.50;5043801;28;20424;-61
2021/09/18 05:39:57;;;;;;;14.52;9.85;;;;;;;8.78;100.00;94919.84;5047221;28;20067;-62
2021/09/18 05:42:22;;;;;;;16.58;9.93;;;;;;;8.77;100.00;94920.91;5052455;28;20029;-61
2021/09/18 05:44:51;;;;;;;14.88;9.50;;;;;;;8.85;100.00;94920.44;5047132;28;20025;-62
2021/09/18 05:47:16;;;;;;;15.02;10.38;;;;;;;9.11;100.00;94915.25;5044989;28;20025;-62
2021/09/18 05:49:42;;;;;;;15.30;11.13;;;;;;;9.26;100.00;94913.47;5047216;28;20082;-62
2021/09/18 05:52:07;;;;;;;16.50;11.07;;;;;;;9.36;100.00;94903.88;5030141;28;20025;-62
2021/09/18 05:54:50;;;;;;;19.40;11.93;;;;;;;9.42;100.00;94900.16;5036846;28;20480;-61
2021/09/18 05:57:21;;;;;;;16.50;10.52;;;;;;;9.53;100.00;94891.09;5042037;28;20385;-62
2021/09/18 05:59:46;;;;;;;16.08;10.57;;;;;;;9.67;100.00;94886.09;5037461;28;20116;-62
2021/09/18 06:02:17;;;;;;;17.63;11.00;;;;;;;9.75;100.00;94889.03;5047294;28;20578;-61
2021/09/18 06:04:43;;;;;;;16.88;10.48;;;;;;;9.84;100.00;94892.78;5042403;28;20060;-61
2021/09/18 06:07:08;;;;;;;17.45;11.05;;;;;;;9.90;100.00;94890.16;5037587;28;20020;-57
2021/09/18 06:09:33;;;;;;;16.25;10.77;;;;;;;9.94;100.00;94893.88;5034602;28;20111;-62
2021/09/18 06:11:59;;;;;;;19.17;11.82;;;;;;;9.98;100.00;94894.94;5030804;28;20044;-61
2021/09/18 06:14:24;;;;;;;17.63;11.23;;;;;;;10.03;100.00;94894.97;5035672;28;20036;-62
2021/09/18 06:16:50;;;;;;;14.23;10.13;;;;;;;10.09;100.00;94889.38;5050187;28;20029;-62
2021/09/18 06:19:18;;;;;;;16.30;11.30;;;;;;;10.20;100.00;94894.72;5050975;28;20036;-61
2021/09/18 06:21:45;;;;;;;15.02;10.98;;;;;;;10.27;100.00;94889.94;5050839;28;20471;-62
2021/09/18 06:24:11;;;;;;;14.77;10.80;;;;;;;10.34;100.00;94896.63;5030650;28;20036;-62
2021/09/18 06:26:38;;;;;;;17.67;10.85;;;;;;;10.36;100.00;94897.16;5035843;28;20032;-62
2021/09/18 06:29:04;;;;;;;15.50;11.20;;;;;;;10.38;100.00;94897.69;5047116;28;20116;-62
2021/09/18 06:31:30;;;;;;;16.20;11.65;;;;;;;10.46;100.00;94899.03;5039135;28;20042;-62
2021/09/18 06:33:55;;;;;;;18.17;12.73;;;;;;;10.59;100.00;94898.50;5039046;28;20032;-62
2021/09/18 06:36:21;;;;;;;18.67;13.30;;;;;;;10.87;100.00;94897.13;5019172;28;20041;-62
2021/09/18 06:38:46;;;;;;;26.50;15.75;;;;;;;11.12;100.00;94890.09;5047575;28;20025;-62
2021/09/18 06:41:27;;;;;;;26.00;17.00;;;;;;;11.25;100.00;94894.88;5050821;28;20021;-62
2021/09/18 06:43:52;;;;;;;32.83;18.52;;;;;;;11.39;100.00;94889.72;5050697;28;20037;-63
2021/09/18 06:46:17;;;;;;;32.38;19.38;;;;;;;11.66;100.00;94897.41;5051962;28;20637;-62
2021/09/18 06:48:43;;;;;;;30.65;18.83;;;;;;;11.82;100.00;94893.59;5051890;28;20025;-63
2021/09/18 06:51:11;;;;;;;24.02;15.48;;;;;;;12.00;100.00;94892.16;5051892;28;20028;-62
2021/09/18 06:53:40;;;;;;;20.65;14.18;;;;;;;12.28;100.00;94893.31;5051872;28;20529;-63
2021/09/18 06:56:07;;;;;;;17.95;12.68;;;;;;;12.50;100.00;94888.31;5050698;28;20391;-62
2021/09/18 06:58:33;;;;;;;15.48;11.45;;;;;;;12.71;100.00;94897.00;5051807;28;20086;-62
2021/09/18 07:00:58;;;;;;;16.98;10.93;;;;;;;-144.43;100.00;64487.81;5051696;28;20020;-63
2021/09/18 07:03:25;;;;;;;15.35;10.55;;;;;;;-144.43;100.00;64487.81;5051827;28;20107;-63
2021/09/18 07:05:50;;;;;;;18.52;10.38;;;;;;;-144.43;100.00;64487.81;5051882;28;20021;-63
2021/09/18 07:08:22;;;;;;;12.57;9.65;;;;;;;-144.43;100.00;64487.81;5051846;28;20029;-63
2021/09/18 07:10:47;;;;;;;11.68;8.68;;;;;;;13.58;100.00;94872.69;5051774;28;20036;-62
2021/09/18 07:13:12;;;;;;;12.90;9.35;;;;;;;13.63;100.00;94883.38;5051611;28;20479;-62
2021/09/18 07:15:45;;;;;;;10.73;8.52;;;;;;;13.92;100.00;94880.59;5051786;28;20121;-63
2021/09/18 07:18:11;;;;;;;15.73;9.60;;;;;;;14.11;100.00;94875.19;5055165;28;20020;-63
2021/09/18 07:20:36;;;;;;;10.63;8.23;;;;;;;14.35;100.00;94877.81;5054059;28;20027;-62
2021/09/18 07:23:01;;;;;;;11.18;8.35;;;;;;;14.67;100.00;94872.47;5054103;28;20031;-63
2021/09/18 07:25:27;;;;;;;13.93;9.43;;;;;;;14.94;100.00;94865.53;5055261;28;20108;-63
2021/09/18 07:27:53;;;;;;;10.13;7.93;;;;;;;15.16;100.00;94854.84;5054108;28;20102;-63
2021/09/18 07:30:19;;;;;;;11.27;7.85;;;;;;;15.24;100.00;94834.50;5054932;28;20072;-63
2021/09/18 07:32:44;;;;;;;13.65;8.32;;;;;;;15.37;100.00;94822.88;5054936;28;20117;-63
2021/09/18 07:35:13;;;;;;;10.00;7.85;;;;;;;15.53;100.00;94805.28;5053761;28;20387;-63
2021/09/18 07:37:38;;;;;;;10.50;7.70;;;;;;;15.52;100.00;94774.00;5053470;28;20036;-63
2021/09/18 07:40:09;;;;;;;11.70;7.22;;;;;;;15.75;100.00;94739.78;5053706;28;20017;-63
2021/09/18 07:42:41;;;;;;;9.73;7.40;;;;;;;15.96;100.00;94688.78;5054690;28;20079;-63
2021/09/18 07:45:08;;;;;;;8.65;7.65;;;;;;;16.09;100.00;94633.06;5033684;28;20041;-63
2021/09/18 07:47:33;;;;;;;8.20;6.85;;;;;;;16.12;100.00;94586.50;5052026;28;20087;-62
2021/09/18 07:50:11;;;;;;;11.32;7.50;;;;;;;16.17;100.00;94554.75;5041105;28;20021;-63
2021/09/18 07:52:36;;;;;;;8.65;6.82;;;;;;;16.33;100.00;94530.00;5040947;28;20029;-63
2021/09/18 07:55:02;;;;;;;10.18;6.63;;;;;;;16.50;100.00;94522.72;5053138;28;20099;-63
2021/09/18 07:57:36;;;;;;;8.15;6.60;;;;;;;16.74;100.00;94522.31;5053478;28;20353;-63
2021/09/18 08:00:04;;;;;;;9.57;6.78;;;;;;;16.88;100.00;94540.28;5053622;28;20041;-63
2021/09/18 08:02:29;;;;;;;8.52;6.78;;;;;;;16.93;100.00;94557.16;5044396;28;20045;-63
2021/09/18 08:04:57;;;;;;;8.00;6.32;;;;;;;17.05;100.00;94556.53;5033295;28;20072;-63
2021/09/18 08:07:25;;;;;;;8.63;6.30;;;;;;;17.25;100.00;94580.22;5033632;28;20608;-63
2021/09/18 08:09:57;;;;;;;9.45;6.78;;;;;;;17.44;100.00;94600.78;5033303;28;20488;-63
2021/09/18 08:12:23;;;;;;;7.47;6.40;;;;;;;17.45;100.00;94635.66;5042403;28;20057;-63
2021/09/18 08:14:50;;;;;;;9.48;6.63;;;;;;;17.36;100.00;94670.84;5052949;28;20071;-63
2021/09/18 08:17:15;;;;;;;8.85;6.82;;;;;;;17.58;100.00;94671.81;5052910;28;20035;-63
2021/09/18 08:19:41;;;;;;;9.43;6.88;;;;;;;17.80;100.00;94704.19;5051939;28;20021;-63
2021/09/18 08:22:09;;;;;;;8.13;6.50;;;;;;;17.96;100.00;94747.84;5053152;28;20029;-63
2021/09/18 08:24:35;;;;;;;8.68;7.15;;;;;;;17.89;100.00;94780.84;5052612;28;20102;-63
2021/09/18 08:27:00;;;;;;;9.57;6.78;;;;;;;17.87;100.00;94784.97;5052902;28;20475;-63
2021/09/18 08:29:26;;;;;;;10.20;7.50;;;;;;;17.84;100.00;94789.13;5052343;28;20045;-63
2021/09/18 08:31:51;;;;;;;9.07;6.93;;;;;;;18.00;100.00;94796.78;5052965;28;20113;-63
2021/09/18 08:34:19;;;;;;;8.27;7.40;;;;;;;18.10;100.00;94823.56;5052629;28;20036;-62
2021/09/18 08:36:45;;;;;;;9.98;7.45;;;;;;;18.41;100.00;94826.91;5052991;28;20021;-63
2021/09/18 08:39:13;;;;;;;9.13;7.28;;;;;;;18.71;100.00;94860.44;5052640;28;20077;-63
2021/09/18 08:41:47;;;;;;;8.38;6.80;;;;;;;18.78;100.00;94884.38;5052803;28;20104;-63
2021/09/18 08:44:33;;;;;;;8.52;7.50;;;;;;;18.75;100.00;94909.41;5051104;28;20020;-63
2021/09/18 08:47:02;;;;;;;8.02;6.93;;;;;;;18.77;100.00;94901.75;5040760;28;20029;-63
2021/09/18 08:49:31;;;;;;;8.32;7.20;;;;;;;18.70;100.00;94940.22;5032716;28;20033;-63
2021/09/18 08:52:00;;;;;;;7.95;7.15;;;;;;;18.51;100.00;94932.38;5037384;28;20044;-63
2021/09/18 08:54:29;;;;;;;9.80;7.07;;;;;;;18.41;100.00;94912.91;5051067;28;20025;-63
2021/09/18 08:56:55;;;;;;;7.93;6.65;;;;;;;18.65;100.00;94920.59;5038653;28;20053;-63
2021/09/18 08:59:20;;;;;;;8.63;6.97;;;;;;;18.79;100.00;94941.03;5033087;28;20114;-63
2021/09/18 09:02:18;;;;;;;7.65;6.72;;;;;;;18.94;100.00;94952.50;5032415;28;20029;-63
2021/09/18 09:04:45;;;;;;;7.15;6.45;;;;;;;19.26;100.00;94954.69;5042035;28;20107;-63
2021/09/18 09:07:15;;;;;;;7.30;6.13;;;;;;;19.43;100.00;94986.47;5051118;28;20032;-62
2021/09/18 09:10:02;;;;;;;7.80;6.75;;;;;;;19.28;100.00;94998.63;5052317;28;20047;-63
2021/09/18 09:12:45;;;;;;;6.55;5.93;;;;;;;19.38;100.00;94983.91;5047640;28;20071;-62
2021/09/18 09:15:21;;;;;;;8.20;6.70;;;;;;;19.49;100.00;94989.78;5030608;28;20392;-63
2021/09/18 09:17:51;;;;;;;7.70;6.72;;;;;;;19.58;100.00;95007.69;5030872;28;20041;-63
2021/09/18 09:20:29;;;;;;;8.98;6.80;;;;;;;19.51;100.00;94995.69;5050008;28;20025;-62
2021/09/18 09:22:55;;;;;;;9.10;6.63;;;;;;;19.75;100.00;94989.75;5037033;28;20552;-62
2021/09/18 09:25:28;;;;;;;8.80;6.60;;;;;;;19.82;100.00;95000.91;5032168;28;20116;-62
2021/09/18 09:27:55;;;;;;;7.90;6.95;;;;;;;20.02;100.00;95019.22;5045252;28;20048;-63
2021/09/18 09:30:47;;;;;;;10.48;6.72;;;;;;;20.40;100.00;95040.16;5051813;28;20116;-62
2021/09/18 09:33:13;;;;;;;8.65;6.88;;;;;;;20.51;100.00;95052.31;5048436;28;20051;-63
2021/09/18 09:35:40;;;;;;;9.05;6.50;;;;;;;20.62;100.00;95034.47;5050369;28;20119;-62
2021/09/18 09:38:07;;;;;;;8.20;6.68;;;;;;;20.38;100.00;95070.44;5051717;28;20029;-62
2021/09/18 09:40:45;;;;;;;7.85;6.43;;;;;;;20.33;100.00;95061.66;5052449;28;20035;-62
2021/09/18 09:43:18;;;;;;;6.63;5.93;;;;;;;20.49;100.00;95082.56;5051767;28;20431;-62
2021/09/18 09:45:44;;;;;;;;;;;;;;;20.53;100.00;95096.34;5034628;28;20426;-62
2021/09/18 09:48:14;;;;;;;7.00;5.97;;;;;;;20.48;100.00;95091.84;5041220;28;19909;-63
2021/09/18 09:50:42;;;;;;;7.55;6.15;;;;;;;20.47;100.00;95089.47;5031472;28;20111;-62
2021/09/18 09:53:33;;;;;;;7.65;5.97;;;;;;;20.78;100.00;95073.63;5031213;28;20029;-63
2021/09/18 09:56:06;;;;;;;7.13;5.57;;;;;;;20.65;100.00;95117.41;5031524;28;20021;-63
2021/09/18 09:58:59;;;;;;;8.20;6.38;;;;;;;20.72;100.00;95101.34;5031981;28;20029;-63
2021/09/18 10:01:24;;;;;;;6.88;6.18;;;;;;;20.90;100.00;95108.28;5040722;28;20028;-62
2021/09/18 10:03:50;;;;;;;5.82;5.03;;;;;;;20.95;100.00;95108.13;5031047;28;20116;-62
2021/09/18 10:06:15;;;;;;;7.65;5.50;;;;;;;21.07;100.00;95110.13;5031509;28;20475;-63
2021/09/18 10:08:45;;;;;;;8.23;5.47;;;;;;;21.22;100.00;95155.03;5031230;28;20455;-63
2021/09/18 10:11:10;;;;;;;6.28;5.50;;;;;;;21.23;100.00;95130.19;5030141;28;20087;-62
2021/09/18 10:13:37;;;;;;;6.43;5.63;;;;;;;21.16;100.00;95131.84;5029814;28;20025;-63
2021/09/18 10:16:05;;;;;;;6.43;4.97;;;;;;;21.20;100.00;95162.75;5030307;28;20025;-63
2021/09/18 10:18:32;;;;;;;9.40;6.40;;;;;;;21.45;100.00;95140.00;5031288;28;20037;-63
2021/09/18 10:23:26;;;;;;;7.47;5.82;;;;;;;21.14;100.00;95157.47;5031218;28;20029;-63
2021/09/18 10:25:55;;;;;;;7.45;6.00;;;;;;;21.23;100.00;95151.97;5031751;28;20396;-63
2021/09/18 10:28:51;;;;;;;7.38;6.22;;;;;;;21.26;100.00;95109.69;5048490;28;20155;-62
2021/09/18 10:31:21;;;;;;;6.18;5.57;;;;;;;21.31;100.00;95164.78;5045256;28;20069;-62
2021/09/18 10:33:49;;;;;;;8.77;6.05;;;;;;;21.07;100.00;95148.25;5044287;28;20034;-61
2021/09/18 10:36:40;;;;;;;6.82;5.30;;;;;;;21.28;100.00;95156.50;5031584;28;20067;-62
2021/09/18 10:39:12;;;;;;;6.03;5.28;;;;;;;21.52;100.00;95174.91;5031963;28;20053;-61
2021/09/18 10:42:03;;;;;;;6.43;4.95;;;;;;;21.63;100.00;95166.00;5031755;28;20041;-62
2021/09/18 10:44:50;;;;;;;5.90;5.07;;;;;;;21.85;100.00;95200.31;5026772;28;20037;-61
2021/09/18 10:47:35;;;;;;;5.50;4.95;;;;;;;21.48;100.00;95191.09;5031992;28;20388;-62
2021/09/18 10:50:01;;;;;;;4.50;3.92;;;;;;;21.42;100.00;95208.78;5039370;28;20029;-61
2021/09/18 10:52:32;;;;;;;5.00;4.00;;;;;;;21.67;100.00;95212.47;5054596;28;20154;-62
2021/09/18 10:55:01;;;;;;;4.57;3.92;;;;;;;21.91;100.00;95222.69;5054332;28;20037;-61
2021/09/18 10:57:45;;;;;;;6.47;5.78;;;;;;;22.14;100.00;95215.81;5055466;28;20487;-62
2021/09/18 11:00:17;;;;;;;5.03;4.43;;;;;;;22.05;100.00;95236.88;5055551;28;20087;-62
2021/09/18 11:02:50;;;;;;;4.57;4.10;;;;;;;21.99;100.00;95244.44;5049406;28;20152;-62
2021/09/18 11:05:27;;;;;;;4.45;3.60;;;;;;;22.36;100.00;95282.03;4997901;28;20070;-60
2021/09/18 11:08:01;;;;;;;3.78;3.35;;;;;;;22.40;100.00;95308.34;5045135;28;20431;-61
2021/09/18 11:10:26;;;;;;;4.03;2.90;;;;;;;22.60;100.00;95305.94;5055213;28;20033;-61
2021/09/18 11:13:07;;;;;;;4.20;3.50;;;;;;;22.71;100.00;95282.53;5055171;28;20078;-61
2021/09/18 11:15:53;;;;;;;4.53;3.97;;;;;;;22.64;100.00;95306.84;5053939;28;20025;-61
2021/09/18 11:18:44;;;;;;;7.43;4.35;;;;;;;22.45;100.00;95280.03;5055179;28;20019;-62
2021/09/18 11:21:19;;;;;;;5.10;3.90;;;;;;;22.36;100.00;95258.31;5055241;28;20021;-60
2021/09/18 11:23:50;;;;;;;4.43;3.92;;;;;;;22.46;100.00;95287.88;5055091;28;20056;-59
2021/09/18 11:26:48;;;;;;;3.95;3.55;;;;;;;22.49;100.00;95291.91;5055214;28;20032;-56
2021/09/18 11:29:33;;;;;;;3.33;3.03;;;;;;;22.56;100.00;95289.41;5053491;28;20076;-59
2021/09/18 11:32:02;;;;;;;4.10;3.53;;;;;;;22.76;100.00;95285.84;5053737;28;20457;-61
2021/09/18 11:34:56;;;;;;;4.40;3.53;;;;;;;23.09;100.00;95306.88;5054853;28;20446;-59
2021/09/18 11:37:29;;;;;;;3.50;3.20;;;;;;;23.01;100.00;95310.50;5029662;28;20432;-58